Joy — V2EI9 — position and weather

sailwx.info

Track history (hours):
 
Tides and Currents Weather Stations Pressure Air Temp Water Temp Dewpoint Dewpoint Depression Visibility Wind Speed Wind Dir Waves Ship Positions

Joy

Last reported at 2015-Apr-21 17:06 UTC. Time now 2015-Apr-21 17:51 UTC.
Position N 43°32' W 001°30'.

Length 105 m; draft 4 m.

Type: Cargo ship. MMSI: 305444000.

Date/timePositionNaut miles runAvg speedWind from/ knotsBaromVisibWave heightAir tempDewpointWater temp
2015-Apr-21 17:06N 43°32' W 001°30'0 0.0
2015-Apr-21 16:24N 43°32' W 001°30'0 0.0
2015-Apr-21 15:33N 43°32' W 001°30'0 0.0
2015-Apr-21 14:30N 43°32' W 001°30'0 0.0
2015-Apr-21 13:33N 43°32' W 001°30'0 0.0
2015-Apr-21 12:21N 43°32' W 001°30'0 0.0
2015-Apr-21 08:12N 43°32' W 001°30'0 0.0
2015-Apr-21 06:17N 43°32' W 001°30'0 0.1
2015-Apr-21 04:33N 43°31' W 001°30'9 9.1
2015-Apr-21 03:33N 43°35' W 001°41'6 5.7
2015-Apr-21 02:29N 43°37' W 001°49'1 0.4
2015-Apr-21 00:11N 43°36' W 001°49'0 0.4
2015-Apr-20 23:29N 43°36' W 001°49'8 8.8
2015-Apr-20 22:33N 43°28' W 001°53'9 8.4
2015-Apr-20 21:29N 43°19' W 001°55'0 0.0
2015-Apr-20 16:23N 43°19' W 001°55'0 0.0
2015-Apr-20 07:16N 43°19' W 001°55'3 3.0
2015-Apr-20 06:23N 43°22' W 001°56'1 0.0
2015-Apr-18 16:04N 43°21' W 001°55'0 0.0
2015-Apr-17 08:16N 43°21' W 001°55'0 0.0
2015-Apr-16 17:15N 43°21' W 001°55'1 0.1
2015-Apr-16 09:19N 43°22' W 001°55'215 9.9
2015-Apr-15 11:32N 46°31' W 004°18'22 9.7
2015-Apr-15 09:19N 46°50' W 004°33'7 9.6
2015-Apr-15 08:33N 46°57' W 004°38'30 9.7
2015-Apr-15 05:27N 47°23' W 004°59'910.6
2015-Apr-15 04:33N 47°31' W 005°06'1111.0
2015-Apr-15 03:33N 47°41' W 005°14'1111.2
2015-Apr-15 02:32N 47°51' W 005°21'1110.9
2015-Apr-15 01:33N 48°01' W 005°28'1110.5
2015-Apr-15 00:33N 48°10' W 005°35'142 8.9
2015-Apr-14 08:30N 49°54' W 003°05'1311.8
2015-Apr-14 07:26N 49°59' W 002°48'1211.3
2015-Apr-14 06:24N 50°03' W 002°31'910.4
2015-Apr-14 05:33N 50°05' W 002°17'10 9.5
2015-Apr-14 04:33N 50°08' W 002°03'9 8.7
2015-Apr-14 03:31N 50°10' W 001°50'8 8.4
2015-Apr-14 02:33N 50°13' W 001°37'9 8.7
2015-Apr-14 01:33N 50°15' W 001°24'10 9.8
2015-Apr-14 00:33N 50°18' W 001°10'1211.3
2015-Apr-13 23:32N 50°21' W 000°52'1212.0
2015-Apr-13 22:33N 50°24' W 000°35'1212.2
2015-Apr-13 21:33N 50°28' W 000°16'1512.0
2015-Apr-13 20:19N 50°32' E 000°06'911.7
2015-Apr-13 19:33N 50°35' E 000°20'1111.2
2015-Apr-13 18:33N 50°38' E 000°36'1110.5
2015-Apr-13 17:33N 50°43' E 000°51'1110.6
2015-Apr-13 16:33N 50°49' E 001°05'1110.9
2015-Apr-13 15:33N 50°56' E 001°19'1212.5
2015-Apr-13 14:33N 51°05' E 001°32'1313.2
2015-Apr-13 13:33N 51°14' E 001°47'1312.5
2015-Apr-13 12:33N 51°25' E 001°57'1211.5
2015-Apr-13 11:33N 51°34' E 002°09'1110.8
2015-Apr-13 10:33N 51°42' E 002°20'29 9.8
2015-Apr-13 07:33N 52°05' E 002°50'  
Track history (hours):
 
Tides and Currents Weather Stations Pressure Air Temp Water Temp Dewpoint Dewpoint Depression Visibility Wind Speed Wind Dir Waves Ship Positions

Joy

Last reported at 2015-Apr-21 17:06 UTC. Time now 2015-Apr-21 17:51 UTC.
Position N 43°32' W 001°30'.

Length 105 m; draft 4 m.

Type: Cargo ship. MMSI: 305444000.

Date/timePositionNaut miles runAvg speedWind from/ knotsBaromVisibWave heightAir tempDewpointWater temp
2015-Apr-21 17:06N 43°32' W 001°30'0 0.0
2015-Apr-21 16:24N 43°32' W 001°30'0 0.0
2015-Apr-21 15:33N 43°32' W 001°30'0 0.0
2015-Apr-21 14:30N 43°32' W 001°30'0 0.0
2015-Apr-21 13:33N 43°32' W 001°30'0 0.0
2015-Apr-21 12:21N 43°32' W 001°30'0 0.0
2015-Apr-21 08:12N 43°32' W 001°30'0 0.0
2015-Apr-21 06:17N 43°32' W 001°30'0 0.1
2015-Apr-21 04:33N 43°31' W 001°30'9 9.1
2015-Apr-21 03:33N 43°35' W 001°41'6 5.7
2015-Apr-21 02:29N 43°37' W 001°49'1 0.4
2015-Apr-21 00:11N 43°36' W 001°49'0 0.4
2015-Apr-20 23:29N 43°36' W 001°49'8 8.8
2015-Apr-20 22:33N 43°28' W 001°53'9 8.4
2015-Apr-20 21:29N 43°19' W 001°55'0 0.0
2015-Apr-20 16:23N 43°19' W 001°55'0 0.0
2015-Apr-20 07:16N 43°19' W 001°55'3 3.0
2015-Apr-20 06:23N 43°22' W 001°56'1 0.0
2015-Apr-18 16:04N 43°21' W 001°55'0 0.0
2015-Apr-17 08:16N 43°21' W 001°55'0 0.0
2015-Apr-16 17:15N 43°21' W 001°55'1 0.1
2015-Apr-16 09:19N 43°22' W 001°55'215 9.9
2015-Apr-15 11:32N 46°31' W 004°18'22 9.7
2015-Apr-15 09:19N 46°50' W 004°33'7 9.6
2015-Apr-15 08:33N 46°57' W 004°38'30 9.7
2015-Apr-15 05:27N 47°23' W 004°59'910.6
2015-Apr-15 04:33N 47°31' W 005°06'1111.0
2015-Apr-15 03:33N 47°41' W 005°14'1111.2
2015-Apr-15 02:32N 47°51' W 005°21'1110.9
2015-Apr-15 01:33N 48°01' W 005°28'1110.5
2015-Apr-15 00:33N 48°10' W 005°35'142 8.9
2015-Apr-14 08:30N 49°54' W 003°05'1311.8
2015-Apr-14 07:26N 49°59' W 002°48'1211.3
2015-Apr-14 06:24N 50°03' W 002°31'910.4
2015-Apr-14 05:33N 50°05' W 002°17'10 9.5
2015-Apr-14 04:33N 50°08' W 002°03'9 8.7
2015-Apr-14 03:31N 50°10' W 001°50'8 8.4
2015-Apr-14 02:33N 50°13' W 001°37'9 8.7
2015-Apr-14 01:33N 50°15' W 001°24'10 9.8
2015-Apr-14 00:33N 50°18' W 001°10'1211.3
2015-Apr-13 23:32N 50°21' W 000°52'1212.0
2015-Apr-13 22:33N 50°24' W 000°35'1212.2
2015-Apr-13 21:33N 50°28' W 000°16'1512.0
2015-Apr-13 20:19N 50°32' E 000°06'911.7
2015-Apr-13 19:33N 50°35' E 000°20'1111.2
2015-Apr-13 18:33N 50°38' E 000°36'1110.5
2015-Apr-13 17:33N 50°43' E 000°51'1110.6
2015-Apr-13 16:33N 50°49' E 001°05'1110.9
2015-Apr-13 15:33N 50°56' E 001°19'1212.5
2015-Apr-13 14:33N 51°05' E 001°32'1313.2
2015-Apr-13 13:33N 51°14' E 001°47'1312.5
2015-Apr-13 12:33N 51°25' E 001°57'1211.5
2015-Apr-13 11:33N 51°34' E 002°09'1110.8
2015-Apr-13 10:33N 51°42' E 002°20'29 9.8
2015-Apr-13 07:33N 52°05' E 002°50'  

Dump ship's entire track history